Atwood, Alabama
Current Conditions -  °F | °C
As of 1:56 PM on Thursday 27 Nov 2014 (Local Time) from K1M4 Reporting Station
Overcast Overcast  
Wind Chill: 35°   Ceiling: 3000
Heat Index: 39°   Visibility: 10mi
Dew Point: 29°   Wind: 6mph
Humidity: 68%   Direction: 340°NNW
Pressure: 30.42"   Gusts: NA
Location:  34.3479°N, 87.9692°W
Report Text: K1M4 271956Z AUTO 34005KT 10SM BKN030 OVC036 04/M02 A3042 RMK AO2 T00381016 BKN V OVC SLP307
Loading
Personal Weather Stations






























Interactive Weather Map New forecast layout! Learn more

10-Day Weather Forecast

Advertisements
Track Severe Weather on mobile